Time;durP1;ratioP1;P1;durP2;ratioP2;P2;SDS_P1;SDS_P2;PMS_P1;PMS_P2;Temp;Humidity;BMP_temperature;BMP_pressure;BME280_temperature;BME280_humidity;BME280_pressure;Samples;Min_cycle;Max_cycle;Signal;HPM_P1;HPM_P2
2023/05/10 00:03:04;;;;;;;2.50;1.40;;;;;;;15.55;60.93;100426.41;6278096;28;20361;-73
2023/05/10 00:06:05;;;;;;;1.48;1.00;;;;;;;15.55;60.05;100427.25;6277991;28;20060;-73
2023/05/10 00:09:07;;;;;;;2.85;1.33;;;;;;;15.50;61.18;100424.13;6277979;28;20045;-73
2023/05/10 00:12:08;;;;;;;2.25;1.35;;;;;;;15.45;61.53;100427.16;6277447;28;20056;-73
2023/05/10 00:15:10;;;;;;;2.50;1.30;;;;;;;15.43;61.85;100422.91;6277560;28;20566;-73
2023/05/10 00:18:12;;;;;;;4.38;1.48;;;;;;;15.39;63.68;100419.66;6277575;28;20434;-73
2023/05/10 00:21:14;;;;;;;4.43;1.85;;;;;;;15.36;63.57;100427.88;6277721;28;20045;-73
2023/05/10 00:24:15;;;;;;;2.88;1.20;;;;;;;15.35;63.12;100425.31;6267574;28;20171;-73
2023/05/10 00:27:17;;;;;;;2.58;1.17;;;;;;;15.29;63.53;100421.34;6277285;28;20048;-73
2023/05/10 00:30:18;;;;;;;2.40;1.13;;;;;;;15.26;64.22;100416.31;6277123;28;20052;-73
2023/05/10 00:33:21;;;;;;;2.67;1.30;;;;;;;15.23;64.30;100412.09;6277127;28;20055;-73
2023/05/10 00:36:22;;;;;;;1.23;0.95;;;;;;;15.22;64.82;100412.22;6277489;28;20056;-73
2023/05/10 00:39:24;;;;;;;3.25;1.60;;;;;;;15.16;65.40;100410.88;6277263;28;20037;-73
2023/05/10 00:42:25;;;;;;;2.28;1.30;;;;;;;15.12;65.07;100406.78;6277098;28;20048;-73
2023/05/10 00:45:26;;;;;;;3.60;1.33;;;;;;;15.08;66.17;100399.19;6277094;28;20049;-73
2023/05/10 00:48:30;;;;;;;1.58;1.38;;;;;;;15.04;66.12;100398.63;6277029;28;20044;-73
2023/05/10 00:51:32;;;;;;;4.07;1.60;;;;;;;14.94;66.21;100400.25;6277406;28;20044;-73
2023/05/10 00:54:34;;;;;;;6.05;1.40;;;;;;;14.90;66.62;100402.31;6276979;28;20357;-73
2023/05/10 00:57:35;;;;;;;5.07;1.23;;;;;;;14.89;67.18;100392.69;6276736;28;20041;-73
2023/05/10 01:00:38;;;;;;;2.08;1.40;;;;;;;14.85;66.87;100396.56;6276380;28;20056;-73
2023/05/10 01:03:41;;;;;;;3.17;1.80;;;;;;;14.86;67.93;100392.94;6276972;28;20049;-73
2023/05/10 01:06:43;;;;;;;4.05;1.60;;;;;;;14.86;68.28;100394.75;6276576;28;20041;-73
2023/05/10 01:09:45;;;;;;;3.15;1.73;;;;;;;14.83;67.64;100393.16;6276603;28;20045;-73
2023/05/10 01:12:47;;;;;;;3.78;1.63;;;;;;;14.79;66.68;100383.78;6276415;28;20079;-73
2023/05/10 01:15:48;;;;;;;3.53;1.50;;;;;;;14.79;67.03;100383.78;6276589;28;20049;-73
2023/05/10 01:18:52;;;;;;;2.92;1.42;;;;;;;14.78;68.18;100382.09;6276153;28;20053;-73
2023/05/10 01:22:03;;;;;;;2.90;1.10;;;;;;;14.77;67.93;100390.16;6276348;28;20056;-73
2023/05/10 01:25:40;;;;;;;5.03;1.98;;;;;;;14.73;67.72;100396.66;6276187;28;20407;-73
2023/05/10 01:28:59;;;;;;;1.55;1.30;;;;;;;14.71;67.71;100397.56;6276120;28;20045;-73
2023/05/10 01:32:19;;;;;;;3.95;1.70;;;;;;;14.68;68.25;100389.06;6275716;28;20061;-73
2023/05/10 01:35:25;;;;;;;3.42;1.65;;;;;;;14.66;67.64;100389.16;6276197;28;20048;-73
2023/05/10 01:38:33;;;;;;;2.50;1.45;;;;;;;14.63;67.54;100389.41;6275535;28;20345;-73
2023/05/10 01:41:45;;;;;;;3.50;1.35;;;;;;;14.60;67.59;100388.78;6276070;28;20167;-73
2023/05/10 01:44:54;;;;;;;5.60;2.03;;;;;;;14.59;67.75;100385.31;6275750;28;20314;-73
2023/05/10 01:48:06;;;;;;;7.47;1.67;;;;;;;14.57;67.67;100387.22;6275649;28;20049;-73
2023/05/10 01:51:10;;;;;;;1.77;1.48;;;;;;;14.57;68.64;100394.31;6261270;28;20382;-73
2023/05/10 01:54:13;;;;;;;1.65;1.40;;;;;;;14.57;69.03;100383.72;6267677;28;20056;-73
2023/05/10 01:57:17;;;;;;;2.65;1.73;;;;;;;14.56;70.15;100382.03;6269426;28;20044;-73
2023/05/10 02:00:20;;;;;;;2.78;1.60;;;;;;;14.50;71.19;100383.34;6268467;28;20044;-73
2023/05/10 02:03:24;;;;;;;3.42;2.17;;;;;;;14.41;72.68;100384.03;6275423;28;20509;-73
2023/05/10 02:06:27;;;;;;;2.65;1.73;;;;;;;14.40;74.58;100385.00;6275374;28;20044;-73
2023/05/10 02:09:31;;;;;;;3.67;1.77;;;;;;;14.32;74.72;100382.91;6275202;28;20044;-70
2023/05/10 02:12:35;;;;;;;2.13;1.73;;;;;;;14.31;74.75;100388.31;6275221;28;20349;-70
2023/05/10 02:15:39;;;;;;;2.58;1.75;;;;;;;14.24;74.29;100385.28;6275022;28;20040;-70
2023/05/10 02:18:42;;;;;;;2.58;1.80;;;;;;;14.26;75.67;100391.31;6267522;28;20369;-70
2023/05/10 02:21:45;;;;;;;5.32;1.83;;;;;;;14.24;75.76;100395.00;6272716;28;20053;-70
2023/05/10 02:24:48;;;;;;;5.10;1.70;;;;;;;14.20;74.90;100391.75;6275296;28;20048;-70
2023/05/10 02:27:50;;;;;;;7.68;1.90;;;;;;;14.22;75.27;100387.19;6271207;28;20052;-70
2023/05/10 02:30:52;;;;;;;5.18;1.90;;;;;;;14.19;75.26;100396.19;6274890;28;20048;-70
2023/05/10 02:33:56;;;;;;;4.50;1.88;;;;;;;14.20;75.10;100397.03;6274772;28;20072;-70
2023/05/10 02:36:59;;;;;;;5.25;2.28;;;;;;;14.19;75.12;100387.41;6279928;28;20354;-70
2023/05/10 02:40:03;;;;;;;3.63;1.88;;;;;;;14.15;76.16;100389.44;6282954;28;20048;-70
2023/05/10 02:43:06;;;;;;;4.03;1.90;;;;;;;14.10;75.90;100383.66;6283058;28;20053;-70
2023/05/10 02:46:08;;;;;;;5.30;2.00;;;;;;;14.10;77.04;100385.47;6282978;28;20053;-70
2023/05/10 02:49:11;;;;;;;2.55;1.77;;;;;;;14.10;76.13;100381.00;6282673;28;20072;-70
2023/05/10 02:52:17;;;;;;;3.75;2.42;;;;;;;14.04;75.18;100384.13;6283067;28;20045;-70
2023/05/10 02:55:23;;;;;;;4.35;2.15;;;;;;;14.03;75.43;100381.56;6282930;28;20049;-70
2023/05/10 02:58:25;;;;;;;4.55;1.92;;;;;;;14.04;76.73;100373.53;6282739;28;20053;-70
2023/05/10 03:01:26;;;;;;;3.00;1.73;;;;;;;14.07;76.64;100370.66;6282591;28;20049;-70
2023/05/10 03:04:29;;;;;;;6.22;1.88;;;;;;;14.03;76.00;100378.94;6282968;28;20178;-70
2023/05/10 03:07:31;;;;;;;2.30;1.77;;;;;;;13.96;75.16;100370.63;6282391;28;20041;-70
2023/05/10 03:10:34;;;;;;;4.93;1.75;;;;;;;13.94;76.86;100373.38;6282283;28;20053;-69
2023/05/10 03:13:45;;;;;;;5.63;1.98;;;;;;;13.93;78.46;100370.84;6282518;28;20048;-70
2023/05/10 03:16:51;;;;;;;8.88;1.92;;;;;;;13.89;78.19;100370.22;6282984;28;20049;-70
2023/05/10 03:19:55;;;;;;;5.38;2.45;;;;;;;13.84;80.23;100366.22;6264483;28;20044;-70
2023/05/10 03:23:03;;;;;;;2.80;1.80;;;;;;;13.80;83.65;100372.69;6270317;28;20373;-70
2023/05/10 03:26:06;;;;;;;2.63;1.90;;;;;;;13.77;85.09;100373.78;6261761;28;20051;-70
2023/05/10 03:29:09;;;;;;;6.78;1.80;;;;;;;13.75;86.77;100369.53;6260330;28;20041;-70
2023/05/10 03:32:11;;;;;;;3.58;2.30;;;;;;;13.69;89.76;100369.03;6262050;28;20053;-70
2023/05/10 03:35:14;;;;;;;4.05;2.38;;;;;;;13.65;91.54;100364.09;6259825;28;20465;-70
2023/05/10 03:38:15;;;;;;;6.28;2.40;;;;;;;13.63;95.45;100376.56;6261386;28;20041;-70
2023/05/10 03:41:17;;;;;;;3.35;1.85;;;;;;;13.55;96.56;100374.47;6259799;28;20660;-70
2023/05/10 03:44:18;;;;;;;5.15;2.53;;;;;;;13.51;97.13;100372.16;6262636;28;20048;-70
2023/05/10 03:47:19;;;;;;;5.00;2.83;;;;;;;13.41;96.75;100379.88;6258488;28;20041;-70
2023/05/10 03:50:22;;;;;;;2.55;1.90;;;;;;;13.37;99.79;100376.63;6257559;28;20529;-70
2023/05/10 03:53:23;;;;;;;4.32;2.58;;;;;;;13.39;100.00;100379.97;6253975;28;20491;-70
2023/05/10 03:56:25;;;;;;;5.22;2.65;;;;;;;13.39;100.00;100374.69;6255580;28;20045;-70
2023/05/10 03:59:26;;;;;;;10.90;2.80;;;;;;;13.30;100.00;100372.72;6257785;28;20037;-71
2023/05/10 04:02:28;;;;;;;4.05;2.60;;;;;;;13.25;100.00;100374.84;6255320;28;20040;-70
2023/05/10 04:05:30;;;;;;;6.72;2.88;;;;;;;13.18;100.00;100366.50;6252450;28;20580;-70
2023/05/10 04:08:32;;;;;;;4.18;2.72;;;;;;;13.19;100.00;100376.09;6250377;28;20044;-70
2023/05/10 04:11:33;;;;;;;4.85;2.78;;;;;;;13.15;100.00;100374.59;6256727;28;20049;-70
2023/05/10 04:14:34;;;;;;;6.82;2.80;;;;;;;13.00;100.00;100375.69;6255175;28;20102;-70
2023/05/10 04:17:36;;;;;;;11.55;3.50;;;;;;;13.00;100.00;100370.41;6257328;28;20048;-70
2023/05/10 04:20:38;;;;;;;5.13;2.88;;;;;;;12.97;100.00;100370.63;6277763;28;20044;-70
2023/05/10 04:23:40;;;;;;;4.65;2.75;;;;;;;13.00;100.00;100373.06;6278048;28;20048;-70
2023/05/10 04:26:41;;;;;;;4.80;2.78;;;;;;;13.00;100.00;100380.97;6277560;28;20041;-70
2023/05/10 04:29:42;;;;;;;9.10;3.28;;;;;;;12.96;100.00;100376.84;6277301;28;20041;-71
2023/05/10 04:32:44;;;;;;;4.65;2.72;;;;;;;13.03;100.00;100377.25;6277667;28;20071;-70
2023/05/10 04:35:46;;;;;;;4.00;2.70;;;;;;;13.01;100.00;100377.38;6277312;28;20068;-71
2023/05/10 04:38:48;;;;;;;5.72;3.20;;;;;;;13.03;100.00;100378.09;6277344;28;20045;-70
2023/05/10 04:41:49;;;;;;;6.72;3.15;;;;;;;13.01;100.00;100380.00;6277253;28;20083;-71
2023/05/10 04:44:51;;;;;;;5.93;3.38;;;;;;;12.98;100.00;100390.75;6277456;28;20044;-70
2023/05/10 04:47:53;;;;;;;8.35;3.45;;;;;;;12.90;100.00;100404.50;6276961;28;20049;-70
2023/05/10 04:50:56;;;;;;;5.28;3.47;;;;;;;12.96;100.00;100416.41;6277028;28;20358;-71
2023/05/10 04:53:57;;;;;;;4.60;2.88;;;;;;;13.05;100.00;100426.34;6277106;28;20481;-70
2023/05/10 04:56:58;;;;;;;11.32;3.10;;;;;;;13.03;100.00;100428.22;6276827;28;20056;-71
2023/05/10 05:00:00;;;;;;;5.80;3.20;;;;;;;13.05;100.00;100431.63;6276325;28;20430;-71
2023/05/10 05:03:02;;;;;;;4.38;2.53;;;;;;;12.96;100.00;100429.59;6277044;28;20045;-70
2023/05/10 05:06:05;;;;;;;5.18;3.00;;;;;;;12.95;100.00;100422.66;6268749;28;20049;-71
2023/05/10 05:09:06;;;;;;;5.25;3.20;;;;;;;12.99;100.00;100433.81;6276684;28;20049;-71
2023/05/10 05:12:07;;;;;;;6.43;3.25;;;;;;;12.97;100.00;100443.63;6276619;28;20053;-71
2023/05/10 05:15:10;;;;;;;8.95;3.33;;;;;;;12.94;100.00;100436.75;6276488;28;20045;-71
2023/05/10 05:18:11;;;;;;;7.03;3.72;;;;;;;12.85;100.00;100426.84;6276480;28;20052;-71
2023/05/10 05:21:18;;;;;;;7.50;3.80;;;;;;;12.63;100.00;100406.38;6276528;28;20049;-72
2023/05/10 05:24:19;;;;;;;5.55;3.00;;;;;;;12.33;100.00;100394.28;6276583;28;20056;-71
2023/05/10 05:27:22;;;;;;;6.05;3.92;;;;;;;12.19;100.00;100423.34;6275911;28;20052;-71
2023/05/10 05:30:23;;;;;;;6.20;3.30;;;;;;;12.26;100.00;100434.31;6276216;28;20060;-71
2023/05/10 05:33:24;;;;;;;6.55;3.53;;;;;;;12.28;100.00;100435.06;6276146;28;20041;-71
2023/05/10 05:36:27;;;;;;;6.80;3.65;;;;;;;12.38;100.00;100439.63;6276174;28;20446;-71
2023/05/10 05:39:28;;;;;;;6.75;3.88;;;;;;;12.43;100.00;100450.69;6275695;28;20041;-71
2023/05/10 05:42:31;;;;;;;5.28;3.80;;;;;;;12.45;100.00;100453.25;6275828;28;20045;-71
2023/05/10 05:45:33;;;;;;;7.78;3.95;;;;;;;12.44;100.00;100455.03;6275949;28;20056;-71
2023/05/10 05:48:34;;;;;;;6.45;3.78;;;;;;;12.40;100.00;100453.56;6275542;28;20178;-71
2023/05/10 05:51:37;;;;;;;7.07;4.07;;;;;;;12.39;100.00;100465.03;6263990;28;20238;-71
2023/05/10 05:54:38;;;;;;;7.47;4.22;;;;;;;12.34;100.00;100475.00;6264879;28;20446;-71
2023/05/10 05:57:39;;;;;;;6.07;3.88;;;;;;;12.31;100.00;100472.59;6271854;28;20063;-71
2023/05/10 06:00:41;;;;;;;9.85;4.20;;;;;;;12.25;100.00;100483.53;6273923;28;20047;-71
2023/05/10 06:03:43;;;;;;;10.82;4.93;;;;;;;12.19;100.00;100481.28;6271156;28;20132;-71
2023/05/10 06:06:46;;;;;;;7.30;4.35;;;;;;;12.13;100.00;100484.31;6272583;28;20049;-71
2023/05/10 06:09:47;;;;;;;8.27;4.40;;;;;;;12.11;100.00;100488.84;6268140;28;20045;-71
2023/05/10 06:12:48;;;;;;;7.82;4.30;;;;;;;11.91;100.00;100496.22;6274787;28;20053;-71
2023/05/10 06:15:49;;;;;;;7.00;3.65;;;;;;;12.02;100.00;100499.94;6275347;28;20460;-71
2023/05/10 06:18:51;;;;;;;6.88;3.88;;;;;;;12.05;100.00;100499.78;6274974;28;20041;-71
2023/05/10 06:21:53;;;;;;;7.95;4.68;;;;;;;12.12;100.00;100504.53;6275155;28;20049;-71
2023/05/10 06:24:55;;;;;;;7.45;4.82;;;;;;;12.15;100.00;100493.81;6275258;28;20464;-71
2023/05/10 06:27:57;;;;;;;6.60;3.95;;;;;;;12.18;100.00;100501.53;6274677;28;20053;-71
2023/05/10 06:30:59;;;;;;;15.35;4.63;;;;;;;12.20;100.00;100498.78;6275228;28;20041;-71
2023/05/10 06:34:00;;;;;;;6.93;4.10;;;;;;;12.27;100.00;100499.25;6275127;28;20060;-71
2023/05/10 06:37:03;;;;;;;7.28;4.28;;;;;;;12.31;100.00;100498.06;6275152;28;20136;-71
2023/05/10 06:40:06;;;;;;;11.13;5.57;;;;;;;12.32;100.00;100503.28;6274482;28;20041;-71
2023/05/10 06:43:07;;;;;;;8.68;4.38;;;;;;;12.37;100.00;100501.19;6275147;28;20049;-70
2023/05/10 06:46:08;;;;;;;6.75;4.38;;;;;;;12.43;100.00;100502.56;6274732;28;20049;-71
2023/05/10 06:49:10;;;;;;;11.13;5.15;;;;;;;12.42;100.00;100514.91;6274517;28;20056;-70
2023/05/10 06:52:12;;;;;;;7.57;4.80;;;;;;;12.41;100.00;100528.19;6274590;28;20056;-71
2023/05/10 06:55:14;;;;;;;9.23;5.03;;;;;;;12.08;100.00;100528.53;6274847;28;20048;-70
2023/05/10 06:58:15;;;;;;;9.95;5.53;;;;;;;11.95;100.00;100523.22;6274651;28;20049;-71
2023/05/10 07:01:17;;;;;;;12.40;5.28;;;;;;;12.08;100.00;100526.75;6274303;28;20437;-71
2023/05/10 07:04:18;;;;;;;9.52;4.68;;;;;;;12.22;100.00;100532.91;6274574;28;20056;-71
2023/05/10 07:07:21;;;;;;;15.45;5.95;;;;;;;12.23;100.00;100524.09;6268064;28;20170;-71
2023/05/10 07:10:22;;;;;;;11.07;4.32;;;;;;;12.29;100.00;100523.69;6274038;28;20065;-71
2023/05/10 07:13:24;;;;;;;9.30;5.07;;;;;;;12.39;100.00;100530.06;6269758;28;20345;-71
2023/05/10 07:16:25;;;;;;;7.75;5.10;;;;;;;12.41;100.00;100539.56;6274673;28;20052;-71
2023/05/10 07:19:26;;;;;;;10.93;4.78;;;;;;;12.39;100.00;100549.34;6274091;28;20350;-71
2023/05/10 07:22:29;;;;;;;7.82;4.60;;;;;;;12.41;100.00;100544.00;6275930;28;20044;-71
2023/05/10 07:25:30;;;;;;;9.10;5.10;;;;;;;12.47;100.00;100548.88;6277307;28;20040;-71
2023/05/10 07:28:31;;;;;;;11.93;5.63;;;;;;;12.50;100.00;100553.94;6268777;28;20051;-70
2023/05/10 07:31:33;;;;;;;10.60;5.50;;;;;;;12.55;100.00;100556.28;6276483;28;20045;-71
2023/05/10 07:34:34;;;;;;;9.55;5.00;;;;;;;12.61;100.00;100564.63;6277793;28;20040;-71
2023/05/10 07:37:37;;;;;;;8.05;5.07;;;;;;;12.68;100.00;100562.47;6270186;28;20053;-72
2023/05/10 07:40:40;;;;;;;10.75;5.10;;;;;;;12.70;100.00;100561.41;6278559;28;20068;-71
2023/05/10 07:43:41;;;;;;;10.68;5.32;;;;;;;12.82;100.00;100561.56;6278879;28;20063;-71
2023/05/10 07:46:43;;;;;;;10.40;6.38;;;;;;;12.85;100.00;100558.69;6278588;28;20052;-71
2023/05/10 07:49:44;;;;;;;11.95;5.30;;;;;;;12.91;100.00;100567.06;6278231;28;20041;-71
2023/05/10 07:52:47;;;;;;;9.98;6.10;;;;;;;12.92;100.00;100568.75;6278504;28;20053;-71
2023/05/10 07:55:51;;;;;;;12.88;6.50;;;;;;;12.96;100.00;100574.69;6269285;28;20045;-71
2023/05/10 07:58:52;;;;;;;8.75;5.30;;;;;;;13.07;100.00;100580.06;6278025;28;20056;-71
2023/05/10 08:01:54;;;;;;;8.45;4.72;;;;;;;13.16;100.00;100579.47;6275116;28;20078;-71
2023/05/10 08:04:55;;;;;;;6.72;4.32;;;;;;;13.23;100.00;100587.03;6263817;28;20438;-71
2023/05/10 08:07:59;;;;;;;6.50;3.45;;;;;;;13.29;100.00;100599.78;6271458;28;20058;-72
2023/05/10 08:11:00;;;;;;;4.22;2.67;;;;;;;13.28;100.00;100592.84;6277749;28;20049;-72
2023/05/10 08:14:02;;;;;;;2.72;1.98;;;;;;;13.21;100.00;100605.53;6277247;28;20446;-71
2023/05/10 08:17:03;;;;;;;4.18;2.45;;;;;;;13.23;100.00;100611.63;6277504;28;20595;-71
2023/05/10 08:20:07;;;;;;;2.60;1.80;;;;;;;13.22;100.00;100615.22;6272642;28;20134;-71
2023/05/10 08:23:09;;;;;;;1.60;1.33;;;;;;;13.25;100.00;100620.25;6277344;28;20507;-72
2023/05/10 08:26:11;;;;;;;2.97;1.85;;;;;;;13.28;100.00;100617.44;6274444;28;20052;-72
2023/05/10 08:29:12;;;;;;;2.95;1.83;;;;;;;13.33;100.00;100625.03;6270082;28;20037;-71
2023/05/10 08:32:14;;;;;;;3.30;2.40;;;;;;;13.41;100.00;100630.66;6274380;28;20048;-70
2023/05/10 08:35:16;;;;;;;4.15;2.42;;;;;;;13.37;100.00;100630.00;6276008;28;20045;-71
2023/05/10 08:38:19;;;;;;;5.40;2.08;;;;;;;13.43;100.00;100628.75;6273817;28;20049;-71
2023/05/10 08:41:21;;;;;;;3.33;2.47;;;;;;;13.39;100.00;100636.00;6271173;28;20433;-71
2023/05/10 08:44:22;;;;;;;4.75;2.83;;;;;;;13.31;100.00;100627.78;6277610;28;20049;-71
2023/05/10 08:47:24;;;;;;;4.40;2.03;;;;;;;13.36;100.00;100635.41;6273811;28;20057;-71
2023/05/10 08:50:26;;;;;;;5.57;2.83;;;;;;;13.41;100.00;100636.78;6276956;28;20068;-71
2023/05/10 08:53:31;;;;;;;4.47;2.47;;;;;;;13.52;100.00;100643.97;6276940;28;20457;-71
2023/05/10 08:56:33;;;;;;;4.30;2.63;;;;;;;13.62;100.00;100644.19;6274438;28;20044;-71
2023/05/10 08:59:34;;;;;;;4.35;2.42;;;;;;;13.81;100.00;100651.72;6276538;28;20070;-70
2023/05/10 09:02:38;;;;;;;4.40;2.60;;;;;;;13.87;100.00;100653.94;6274144;28;20349;-70
2023/05/10 09:05:39;;;;;;;4.28;2.72;;;;;;;13.88;100.00;100666.19;6276668;28;20132;-70
2023/05/10 09:08:43;;;;;;;4.03;2.42;;;;;;;14.03;100.00;100670.41;6276198;28;20041;-71
2023/05/10 09:11:44;;;;;;;3.13;2.10;;;;;;;14.08;100.00;100670.97;6276514;28;20048;-73
2023/05/10 09:14:47;;;;;;;3.33;1.88;;;;;;;14.03;100.00;100667.78;6276304;28;20049;-71
2023/05/10 09:17:50;;;;;;;2.80;2.05;;;;;;;14.09;100.00;100670.00;6276167;28;20049;-71
2023/05/10 09:20:52;;;;;;;4.40;2.63;;;;;;;14.16;100.00;100670.41;6275842;28;20045;-71
2023/05/10 09:23:55;;;;;;;4.10;2.17;;;;;;;14.21;100.00;100671.78;6276498;28;20049;-71
2023/05/10 09:26:57;;;;;;;6.10;1.98;;;;;;;14.17;100.00;100678.25;6276106;28;20246;-71
2023/05/10 09:29:59;;;;;;;2.60;1.73;;;;;;;14.24;100.00;100672.53;6276388;28;20053;-72
2023/05/10 09:33:01;;;;;;;2.33;1.90;;;;;;;14.29;100.00;100671.25;6275902;28;20049;-72
2023/05/10 09:36:08;;;;;;;4.25;2.38;;;;;;;14.32;100.00;100686.06;6274014;28;20071;-71
2023/05/10 09:39:10;;;;;;;3.58;2.13;;;;;;;14.37;100.00;100682.16;6268349;28;20110;-71
2023/05/10 09:42:12;;;;;;;4.82;2.30;;;;;;;14.33;100.00;100687.75;6276313;28;20045;-71
2023/05/10 09:45:13;;;;;;;3.13;1.98;;;;;;;14.28;100.00;100681.94;6275276;28;20130;-71
2023/05/10 09:48:14;;;;;;;7.07;2.10;;;;;;;14.34;100.00;100692.09;6275120;28;20049;-70
2023/05/10 09:51:20;;;;;;;5.93;2.25;;;;;;;14.47;100.00;100691.09;6275854;28;20055;-71
2023/05/10 09:54:23;;;;;;;4.38;2.50;;;;;;;14.41;100.00;100694.19;6275718;28;20095;-72
2023/05/10 09:57:25;;;;;;;4.65;2.70;;;;;;;14.42;100.00;100695.03;6275498;28;20041;-72
2023/05/10 10:00:27;;;;;;;4.68;2.78;;;;;;;14.41;100.00;100693.34;6275421;28;20131;-72
2023/05/10 10:03:29;;;;;;;4.95;2.58;;;;;;;14.37;100.00;100698.00;6275834;28;20076;-72
2023/05/10 10:06:36;;;;;;;5.10;3.22;;;;;;;14.42;100.00;100709.09;6275311;28;20049;-72
2023/05/10 10:09:39;;;;;;;6.70;3.25;;;;;;;14.53;100.00;100708.38;6275312;28;20548;-71
2023/05/10 10:12:42;;;;;;;7.82;3.78;;;;;;;14.42;100.00;100709.09;6275199;28;20052;-71
2023/05/10 10:15:44;;;;;;;5.90;3.47;;;;;;;14.50;100.00;100705.97;6275510;28;20045;-71
2023/05/10 10:18:45;;;;;;;4.63;2.80;;;;;;;14.54;100.00;100711.88;6274706;28;20434;-71
2023/05/10 10:21:47;;;;;;;6.57;3.40;;;;;;;14.53;100.00;100715.47;6275641;28;20045;-71
2023/05/10 10:24:51;;;;;;;5.25;3.30;;;;;;;14.55;100.00;100714.41;6275300;28;20060;-71
2023/05/10 10:28:08;;;;;;;6.63;3.30;;;;;;;14.53;100.00;100726.88;6274865;28;20048;-71
2023/05/10 10:31:22;;;;;;;7.10;3.83;;;;;;;14.57;100.00;100717.78;6275095;28;20041;-71
2023/05/10 10:34:28;;;;;;;5.13;2.88;;;;;;;14.66;100.00;100719.78;6275208;28;20072;-72
2023/05/10 10:37:46;;;;;;;8.38;3.40;;;;;;;14.80;100.00;100716.16;6268866;28;20511;-76
2023/05/10 10:40:49;;;;;;;7.18;3.92;;;;;;;14.79;100.00;100711.81;6273035;28;20049;-72
2023/05/10 10:44:10;;;;;;;9.23;3.53;;;;;;;14.86;100.00;100709.59;6275102;28;20060;-72
2023/05/10 10:47:27;;;;;;;7.57;3.88;;;;;;;14.90;100.00;100709.25;6273862;28;20049;-72
2023/05/10 10:50:28;;;;;;;8.48;4.18;;;;;;;14.97;100.00;100702.56;6273993;28;20045;-73
2023/05/10 10:53:30;;;;;;;8.95;4.35;;;;;;;15.11;100.00;100706.00;6274844;28;20048;-72
2023/05/10 10:56:33;;;;;;;8.50;4.72;;;;;;;15.18;100.00;100709.91;6274636;28;20041;-72
2023/05/10 10:59:34;;;;;;;6.20;3.78;;;;;;;15.30;100.00;100710.78;6279730;28;20048;-72
2023/05/10 11:02:45;;;;;;;8.02;4.30;;;;;;;15.28;100.00;100700.31;6279839;28;20045;-72
2023/05/10 11:05:48;;;;;;;8.48;4.07;;;;;;;15.31;100.00;100708.06;6279914;28;20439;-73
2023/05/10 11:08:50;;;;;;;8.00;3.42;;;;;;;15.32;100.00;100711.53;6279276;28;20338;-72
2023/05/10 11:11:55;;;;;;;9.57;4.88;;;;;;;15.28;100.00;100705.63;6279481;28;20056;-72
2023/05/10 11:14:58;;;;;;;7.40;4.05;;;;;;;15.28;100.00;100702.13;6279454;28;20056;-72
2023/05/10 11:18:00;;;;;;;7.90;4.03;;;;;;;15.26;100.00;100704.03;6278589;28;20361;-72
2023/05/10 11:21:04;;;;;;;6.75;3.90;;;;;;;15.20;100.00;100714.13;6278824;28;20076;-73
2023/05/10 11:24:13;;;;;;;8.73;4.65;;;;;;;15.16;100.00;100714.44;6277548;28;20044;-73
2023/05/10 11:27:16;;;;;;;10.90;4.57;;;;;;;15.04;100.00;100729.44;6278829;28;20049;-73
2023/05/10 11:30:18;;;;;;;5.38;3.67;;;;;;;14.95;100.00;100719.50;6278863;28;20045;-73
2023/05/10 11:33:20;;;;;;;10.55;4.55;;;;;;;14.92;100.00;100725.03;6279106;28;20053;-73
2023/05/10 11:36:24;;;;;;;9.05;4.85;;;;;;;14.88;100.00;100736.78;6278710;28;20045;-72
2023/05/10 11:39:27;;;;;;;9.45;5.18;;;;;;;14.85;100.00;100742.28;6268691;28;20543;-72
2023/05/10 11:42:30;;;;;;;9.18;4.85;;;;;;;14.77;100.00;100748.13;6278070;28;20037;-73
2023/05/10 11:45:33;;;;;;;9.90;5.03;;;;;;;14.64;100.00;100755.25;6276396;28;20152;-75
2023/05/10 11:48:34;;;;;;;12.35;5.20;;;;;;;14.52;100.00;100762.22;6278000;28;20059;-75
2023/05/10 11:51:36;;;;;;;7.95;4.90;;;;;;;14.47;100.00;100759.88;6278695;28;20052;-73
2023/05/10 11:54:38;;;;;;;7.07;4.13;;;;;;;14.44;100.00;100761.88;6278570;28;20056;-75
2023/05/10 11:57:42;;;;;;;8.52;3.60;;;;;;;14.30;100.00;100752.25;6278196;28;20049;-76
2023/05/10 12:00:43;;;;;;;6.65;4.18;;;;;;;14.34;100.00;100759.00;6278230;28;20056;-74
2023/05/10 12:03:45;;;;;;;8.50;4.38;;;;;;;14.34;100.00;100766.09;6278513;28;20060;-74
2023/05/10 12:06:47;;;;;;;8.18;4.75;;;;;;;14.34;100.00;100763.47;6278298;28;20056;-74
2023/05/10 12:10:03;;;;;;;8.02;3.65;;;;;;;14.39;100.00;100769.28;6276830;28;20357;-74
2023/05/10 12:13:06;;;;;;;7.70;4.00;;;;;;;14.41;100.00;100765.59;6278217;28;20045;-75
2023/05/10 12:16:15;;;;;;;7.00;3.60;;;;;;;14.46;100.00;100765.25;6277869;28;20409;-74
2023/05/10 12:19:20;;;;;;;9.60;4.18;;;;;;;14.59;100.00;100775.88;6270013;28;20057;-74
2023/05/10 12:22:21;;;;;;;9.45;5.07;;;;;;;14.69;100.00;100774.28;6272806;28;20136;-75
2023/05/10 12:25:25;;;;;;;9.70;3.72;;;;;;;14.76;100.00;100775.56;6276429;28;20044;-74
2023/05/10 12:28:31;;;;;;;10.98;5.85;;;;;;;14.78;100.00;100772.78;6277364;28;20056;-74
2023/05/10 12:31:32;;;;;;;15.18;5.47;;;;;;;14.87;100.00;100774.78;6277848;28;20044;-74
2023/05/10 12:34:35;;;;;;;10.63;5.40;;;;;;;14.87;100.00;100774.78;6277325;28;20067;-74
2023/05/10 12:37:38;;;;;;;13.82;5.78;;;;;;;14.85;100.00;100784.59;6275704;28;20350;-74
2023/05/10 12:40:40;;;;;;;22.58;7.60;;;;;;;14.84;100.00;100790.88;6277325;28;20122;-74
2023/05/10 12:43:43;;;;;;;17.58;6.93;;;;;;;14.80;100.00;100792.03;6277677;28;20049;-74
2023/05/10 12:46:44;;;;;;;19.95;7.10;;;;;;;14.72;100.00;100795.22;6276895;28;20436;-75
2023/05/10 12:49:45;;;;;;;16.15;5.93;;;;;;;14.70;100.00;100797.97;6277189;28;20049;-74
2023/05/10 12:52:47;;;;;;;16.25;6.30;;;;;;;14.80;100.00;100806.09;6277293;28;20041;-74
2023/05/10 12:55:48;;;;;;;13.43;5.35;;;;;;;14.84;100.00;100801.44;6276992;28;20060;-75
2023/05/10 12:58:51;;;;;;;13.77;6.15;;;;;;;15.25;100.00;100806.44;6275649;28;20116;-75
2023/05/10 13:01:52;;;;;;;9.15;4.22;;;;;;;15.38;100.00;100817.00;6276833;28;20377;-75
2023/05/10 13:04:54;;;;;;;9.85;4.35;;;;;;;15.58;100.00;100805.81;6269405;28;20049;-75
2023/05/10 13:07:55;;;;;;;6.05;3.25;;;;;;;15.67;100.00;100805.16;6275401;28;20060;-75
2023/05/10 13:10:56;;;;;;;7.80;3.30;;;;;;;15.72;100.00;100805.69;6276867;28;20041;-75
2023/05/10 13:13:59;;;;;;;5.25;2.65;;;;;;;15.85;100.00;100818.88;6276541;28;20473;-75
2023/05/10 13:17:01;;;;;;;5.90;3.00;;;;;;;16.02;100.00;100811.44;6275363;28;20053;-74
2023/05/10 13:20:03;;;;;;;5.43;2.78;;;;;;;16.06;100.00;100808.44;6265358;28;20134;-74
2023/05/10 13:23:04;;;;;;;4.15;2.67;;;;;;;16.20;100.00;100813.53;6267408;28;20051;-75
2023/05/10 13:26:05;;;;;;;5.50;3.55;;;;;;;16.21;100.00;100820.56;6276089;28;20057;-75
2023/05/10 13:29:08;;;;;;;8.32;2.72;;;;;;;16.07;100.00;100814.59;6275099;28;20052;-75
2023/05/10 13:32:10;;;;;;;3.50;2.45;;;;;;;15.97;100.00;100817.09;6270831;28;20448;-74
2023/05/10 13:35:11;;;;;;;4.40;2.45;;;;;;;16.01;100.00;100812.41;6266733;28;20045;-74
2023/05/10 13:38:13;;;;;;;7.32;2.00;;;;;;;16.18;100.00;100814.63;6270401;28;20052;-74
2023/05/10 13:41:15;;;;;;;2.63;1.55;;;;;;;16.26;100.00;100817.56;6269246;28;20152;-75
2023/05/10 13:44:18;;;;;;;3.80;1.52;;;;;;;16.24;100.00;100815.00;6265186;28;20343;-74
2023/05/10 13:47:21;;;;;;;2.47;1.35;;;;;;;16.09;100.00;100818.81;6275228;28;20040;-75
2023/05/10 13:50:22;;;;;;;2.90;1.10;;;;;;;16.05;100.00;100819.19;6275464;28;20365;-74
2023/05/10 13:53:24;;;;;;;1.35;1.13;;;;;;;15.97;100.00;100820.56;6275809;28;20060;-74
2023/05/10 13:56:25;;;;;;;1.23;1.00;;;;;;;15.85;100.00;100824.16;6275605;28;20364;-74
2023/05/10 13:59:28;;;;;;;1.27;1.10;;;;;;;15.76;100.00;100826.63;6275257;28;20482;-73
2023/05/10 14:02:29;;;;;;;1.30;1.00;;;;;;;15.78;100.00;100824.72;6275467;28;20087;-74
2023/05/10 14:05:31;;;;;;;1.30;1.20;;;;;;;15.79;100.00;100829.06;6273619;28;20122;-73